createdAt,value
2023-05-21T00:00:22.706Z,94595.00
2023-05-21T00:01:22.704Z,94597.00
2023-05-21T00:02:22.782Z,94595.00
2023-05-21T00:03:22.802Z,94595.00
2023-05-21T00:04:22.709Z,94595.00
2023-05-21T00:05:22.717Z,94597.00
2023-05-21T00:06:22.718Z,94595.00
2023-05-21T00:07:22.673Z,94593.00
2023-05-21T00:08:22.655Z,94593.00
2023-05-21T00:09:22.685Z,94591.00
2023-05-21T00:10:22.682Z,94593.00
2023-05-21T00:11:22.649Z,94591.00
2023-05-21T00:12:22.650Z,94589.00
2023-05-21T00:13:22.664Z,94589.00
2023-05-21T00:14:22.650Z,94587.00
2023-05-21T00:15:22.624Z,94583.00
2023-05-21T00:16:22.720Z,94587.00
2023-05-21T00:17:22.661Z,94587.00
2023-05-21T00:18:22.628Z,94587.00
2023-05-21T00:19:22.652Z,94587.00
2023-05-21T00:20:22.575Z,94589.00
2023-05-21T00:21:22.574Z,94593.00
2023-05-21T00:22:22.563Z,94595.00
2023-05-21T00:23:22.586Z,94593.00
2023-05-21T00:24:22.566Z,94593.00
2023-05-21T00:25:22.532Z,94591.00
2023-05-21T00:26:22.542Z,94591.00
2023-05-21T00:27:22.550Z,94593.00
2023-05-21T00:28:22.563Z,94589.00
2023-05-21T00:29:22.562Z,94597.00
2023-05-21T00:30:22.491Z,94597.00
2023-05-21T00:31:22.556Z,94597.00
2023-05-21T00:32:22.597Z,94597.00
2023-05-21T00:33:22.515Z,94595.00
2023-05-21T00:34:22.494Z,94597.00
2023-05-21T00:35:22.464Z,94589.00
2023-05-21T00:36:22.565Z,94591.00
2023-05-21T00:37:22.469Z,94587.00
2023-05-21T00:38:22.474Z,94589.00
2023-05-21T00:39:22.476Z,94587.00
2023-05-21T00:40:22.462Z,94589.00
2023-05-21T00:41:22.435Z,94589.00
2023-05-21T00:42:22.429Z,94591.00
2023-05-21T00:43:22.398Z,94591.00
2023-05-21T00:44:22.407Z,94589.00
2023-05-21T00:45:22.380Z,94593.00
2023-05-21T00:46:22.471Z,94593.00
2023-05-21T00:47:22.430Z,94589.00
2023-05-21T00:48:22.440Z,94593.00
2023-05-21T00:49:22.411Z,94589.00
2023-05-21T00:50:22.405Z,94591.00
2023-05-21T00:51:22.410Z,94589.00
2023-05-21T00:52:22.357Z,94589.00
2023-05-21T00:53:22.368Z,94587.00
2023-05-21T00:54:22.380Z,94589.00
2023-05-21T00:55:22.375Z,94587.00
2023-05-21T00:56:22.392Z,94587.00
2023-05-21T00:57:22.423Z,94589.00
2023-05-21T00:58:22.347Z,94585.00
2023-05-21T00:59:22.352Z,94587.00
2023-05-21T01:00:22.424Z,94587.00
2023-05-21T01:01:22.496Z,94587.00
2023-05-21T01:02:22.483Z,94587.00
2023-05-21T01:03:22.524Z,94589.00
2023-05-21T01:04:22.452Z,94589.00
2023-05-21T01:05:22.463Z,94589.00
2023-05-21T01:06:22.451Z,94585.00
2023-05-21T01:07:22.450Z,94583.00
2023-05-21T01:08:22.439Z,94585.00
2023-05-21T01:09:22.475Z,94585.00
2023-05-21T01:10:22.534Z,94589.00
2023-05-21T01:11:22.500Z,94589.00
2023-05-21T01:12:22.465Z,94583.00
2023-05-21T01:13:22.511Z,94583.00
2023-05-21T01:14:22.566Z,94585.00
2023-05-21T01:15:22.565Z,94587.00
2023-05-21T01:16:22.586Z,94589.00
2023-05-21T01:17:22.546Z,94587.00
2023-05-21T01:18:22.663Z,94583.00
2023-05-21T01:19:22.648Z,94581.00
2023-05-21T01:20:22.546Z,94581.00
2023-05-21T01:21:22.546Z,94579.00
2023-05-21T01:22:22.642Z,94579.00
2023-05-21T01:23:22.641Z,94578.00
2023-05-21T01:24:22.589Z,94579.00
2023-05-21T01:25:22.596Z,94578.00
2023-05-21T01:26:22.587Z,94578.00
2023-05-21T01:27:22.601Z,94578.00
2023-05-21T01:28:22.650Z,94578.00
2023-05-21T01:29:22.659Z,94579.00
2023-05-21T01:30:22.632Z,94578.00
2023-05-21T01:31:22.635Z,94579.00
2023-05-21T01:32:22.656Z,94579.00
2023-05-21T01:33:22.789Z,94576.00
2023-05-21T01:34:22.636Z,94576.00
2023-05-21T01:35:22.659Z,94576.00
2023-05-21T01:36:22.671Z,94578.00
2023-05-21T01:37:22.717Z,94579.00
2023-05-21T01:38:22.719Z,94578.00
2023-05-21T01:39:22.678Z,94578.00
2023-05-21T01:40:22.686Z,94576.00
2023-05-21T01:41:22.698Z,94574.00
2023-05-21T01:42:22.712Z,94574.00
2023-05-21T01:43:22.778Z,94576.00
2023-05-21T01:44:22.770Z,94576.00
2023-05-21T01:45:22.707Z,94576.00
2023-05-21T01:46:22.783Z,94574.00
2023-05-21T01:47:22.770Z,94576.00
2023-05-21T01:48:22.742Z,94574.00
2023-05-21T01:49:22.720Z,94574.00
2023-05-21T01:50:22.719Z,94570.00
2023-05-21T01:51:22.711Z,94568.00
2023-05-21T01:52:22.728Z,94564.00
2023-05-21T01:53:22.732Z,94566.00
2023-05-21T01:54:22.744Z,94568.00
2023-05-21T01:55:22.740Z,94570.00
2023-05-21T01:56:22.706Z,94574.00
2023-05-21T01:57:22.758Z,94568.00
2023-05-21T01:58:22.767Z,94572.00
2023-05-21T01:59:22.728Z,94568.00
2023-05-21T02:00:22.803Z,94570.00
2023-05-21T02:01:22.820Z,94568.00
2023-05-21T02:02:22.753Z,94568.00
2023-05-21T02:03:22.846Z,94572.00
2023-05-21T02:04:22.755Z,94572.00
2023-05-21T02:05:22.773Z,94572.00
2023-05-21T02:06:22.760Z,94568.00
2023-05-21T02:07:22.724Z,94572.00
2023-05-21T02:08:22.725Z,94570.00
2023-05-21T02:09:22.730Z,94568.00
2023-05-21T02:10:22.759Z,94570.00
2023-05-21T02:11:22.738Z,94576.00
2023-05-21T02:12:22.759Z,94576.00
2023-05-21T02:13:25.017Z,94576.00
2023-05-21T02:14:22.790Z,94578.00
2023-05-21T02:15:22.782Z,94578.00
2023-05-21T02:16:22.869Z,94579.00
2023-05-21T02:17:22.753Z,94579.00
2023-05-21T02:18:22.745Z,94578.00
2023-05-21T02:19:22.779Z,94576.00
2023-05-21T02:20:22.747Z,94578.00
2023-05-21T02:21:22.729Z,94581.00
2023-05-21T02:22:22.721Z,94583.00
2023-05-21T02:23:22.668Z,94583.00
2023-05-21T02:24:22.686Z,94583.00
2023-05-21T02:25:23.569Z,94579.00
2023-05-21T02:26:22.725Z,94578.00
2023-05-21T02:27:22.659Z,94581.00
2023-05-21T02:28:22.697Z,94581.00
2023-05-21T02:29:22.674Z,94581.00
2023-05-21T02:30:22.706Z,94576.00
2023-05-21T02:31:22.656Z,94574.00
2023-05-21T02:32:22.689Z,94574.00
2023-05-21T02:33:22.684Z,94578.00
2023-05-21T02:34:22.827Z,94572.00
2023-05-21T02:35:22.611Z,94570.00
2023-05-21T02:36:22.650Z,94564.00
2023-05-21T02:37:22.627Z,94562.00
2023-05-21T02:38:22.592Z,94562.00
2023-05-21T02:39:22.594Z,94562.00
2023-05-21T02:40:22.594Z,94564.00
2023-05-21T02:41:22.600Z,94566.00
2023-05-21T02:42:22.549Z,94562.00
2023-05-21T02:43:22.643Z,94562.00
2023-05-21T02:44:22.566Z,94562.00
2023-05-21T02:45:22.571Z,94560.00
2023-05-21T02:46:22.682Z,94560.00
2023-05-21T02:47:22.554Z,94556.00
2023-05-21T02:48:22.497Z,94556.00
2023-05-21T02:49:22.548Z,94556.00
2023-05-21T02:50:22.531Z,94558.00
2023-05-21T02:51:22.525Z,94556.00
2023-05-21T02:52:22.543Z,94558.00
2023-05-21T02:53:22.531Z,94554.00
2023-05-21T02:54:22.473Z,94554.00
2023-05-21T02:55:22.488Z,94554.00
2023-05-21T02:56:22.553Z,94558.00
2023-05-21T02:57:22.456Z,94558.00
2023-05-21T02:58:22.462Z,94560.00
2023-05-21T02:59:22.471Z,94560.00
2023-05-21T03:00:22.444Z,94560.00
2023-05-21T03:01:22.457Z,94562.00
2023-05-21T03:02:22.735Z,94562.00
2023-05-21T03:03:22.554Z,94560.00
2023-05-21T03:04:22.448Z,94558.00
2023-05-21T03:05:22.453Z,94562.00
2023-05-21T03:06:22.406Z,94562.00
2023-05-21T03:07:22.369Z,94566.00
2023-05-21T03:08:22.417Z,94570.00
2023-05-21T03:09:22.376Z,94574.00
2023-05-21T03:10:22.376Z,94574.00
2023-05-21T03:11:23.085Z,94572.00
2023-05-21T03:12:22.390Z,94572.00
2023-05-21T03:13:22.369Z,94572.00
2023-05-21T03:14:22.358Z,94568.00
2023-05-21T03:15:22.337Z,94568.00
2023-05-21T03:16:22.439Z,94574.00
2023-05-21T03:17:22.321Z,94574.00
2023-05-21T03:18:22.335Z,94578.00
2023-05-21T03:19:22.325Z,94574.00
2023-05-21T03:20:22.292Z,94574.00
2023-05-21T03:21:22.303Z,94574.00
2023-05-21T03:22:22.302Z,94568.00
2023-05-21T03:23:22.292Z,94568.00
2023-05-21T03:24:22.267Z,94572.00
2023-05-21T03:25:22.275Z,94572.00
2023-05-21T03:26:22.310Z,94572.00
2023-05-21T03:27:22.244Z,94570.00
2023-05-21T03:28:22.254Z,94568.00
2023-05-21T03:29:22.288Z,94566.00
2023-05-21T03:30:22.234Z,94568.00
2023-05-21T03:31:22.285Z,94568.00
2023-05-21T03:32:22.297Z,94574.00
2023-05-21T03:33:22.201Z,94574.00
2023-05-21T03:34:22.190Z,94576.00
2023-05-21T03:35:22.190Z,94574.00
2023-05-21T03:36:22.167Z,94574.00
2023-05-21T03:37:22.172Z,94576.00
2023-05-21T03:38:22.175Z,94579.00
2023-05-21T03:39:22.169Z,94578.00
2023-05-21T03:40:22.166Z,94579.00
2023-05-21T03:41:22.209Z,94581.00
2023-05-21T03:42:22.194Z,94579.00
2023-05-21T03:43:22.153Z,94583.00
2023-05-21T03:44:22.162Z,94585.00
2023-05-21T03:45:22.120Z,94579.00
2023-05-21T03:46:22.155Z,94579.00
2023-05-21T03:47:22.170Z,94579.00
2023-05-21T03:48:22.141Z,94579.00
2023-05-21T03:49:22.119Z,94578.00
2023-05-21T03:50:22.098Z,94581.00
2023-05-21T03:51:22.111Z,94579.00
2023-05-21T03:52:22.116Z,94581.00
2023-05-21T03:53:22.118Z,94583.00
2023-05-21T03:54:22.172Z,94583.00
2023-05-21T03:55:22.185Z,94583.00
2023-05-21T03:56:22.078Z,94583.00
2023-05-21T03:57:22.084Z,94581.00
2023-05-21T03:58:22.169Z,94578.00
2023-05-21T03:59:22.168Z,94576.00
2023-05-21T04:00:22.170Z,94574.00
2023-05-21T04:01:22.182Z,94572.00
2023-05-21T04:02:22.267Z,94579.00
2023-05-21T04:03:22.311Z,94585.00
2023-05-21T04:04:22.213Z,94587.00
2023-05-21T04:05:22.219Z,94585.00
2023-05-21T04:06:22.226Z,94583.00
2023-05-21T04:07:22.218Z,94589.00
2023-05-21T04:08:22.181Z,94587.00
2023-05-21T04:09:22.241Z,94591.00
2023-05-21T04:10:22.234Z,94591.00
2023-05-21T04:11:22.261Z,94593.00
2023-05-21T04:12:22.284Z,94591.00
2023-05-21T04:13:22.290Z,94591.00
2023-05-21T04:14:22.301Z,94597.00
2023-05-21T04:15:22.372Z,94599.00
2023-05-21T04:16:22.454Z,94597.00
2023-05-21T04:17:22.614Z,94593.00
2023-05-21T04:18:22.529Z,94595.00
2023-05-21T04:19:22.630Z,94599.00
2023-05-21T04:20:22.665Z,94607.00
2023-05-21T04:21:22.686Z,94609.00
2023-05-21T04:22:22.734Z,94613.00
2023-05-21T04:23:22.803Z,94613.00
2023-05-21T04:24:22.856Z,94609.00
2023-05-21T04:25:22.894Z,94605.00
2023-05-21T04:26:22.955Z,94605.00
2023-05-21T04:27:23.007Z,94609.00
2023-05-21T04:28:23.075Z,94611.00
2023-05-21T04:29:23.147Z,94615.00
2023-05-21T04:30:23.194Z,94617.00
2023-05-21T04:31:23.261Z,94619.00
2023-05-21T04:32:23.364Z,94619.00
2023-05-21T04:33:23.351Z,94617.00
2023-05-21T04:34:23.421Z,94613.00
2023-05-21T04:35:23.503Z,94607.00
2023-05-21T04:36:23.541Z,94607.00
2023-05-21T04:37:23.597Z,94609.00
2023-05-21T04:38:23.615Z,94609.00
2023-05-21T04:39:23.700Z,94613.00
2023-05-21T04:40:23.701Z,94611.00
2023-05-21T04:41:23.808Z,94607.00
2023-05-21T04:42:23.836Z,94605.00
2023-05-21T04:43:23.912Z,94599.00
2023-05-21T04:44:23.977Z,94595.00
2023-05-21T04:45:23.945Z,94599.00
2023-05-21T04:46:24.066Z,94603.00
2023-05-21T04:47:24.025Z,94603.00
2023-05-21T04:48:24.033Z,94603.00
2023-05-21T04:49:24.037Z,94601.00
2023-05-21T04:50:24.094Z,94603.00
2023-05-21T04:51:24.159Z,94605.00
2023-05-21T04:52:24.129Z,94607.00
2023-05-21T04:53:24.166Z,94601.00
2023-05-21T04:54:24.128Z,94599.00
2023-05-21T04:55:24.191Z,94597.00
2023-05-21T04:56:24.192Z,94595.00
2023-05-21T04:57:24.196Z,94595.00
2023-05-21T04:58:24.160Z,94595.00
2023-05-21T04:59:24.210Z,94599.00
2023-05-21T05:00:24.224Z,94599.00
2023-05-21T05:01:24.218Z,94599.00
2023-05-21T05:02:24.218Z,94597.00
2023-05-21T05:03:24.310Z,94601.00
2023-05-21T05:04:24.185Z,94597.00
2023-05-21T05:05:24.148Z,94601.00
2023-05-21T05:06:24.196Z,94597.00
2023-05-21T05:07:24.168Z,94591.00
2023-05-21T05:08:24.196Z,94591.00
2023-05-21T05:09:24.221Z,94589.00
2023-05-21T05:10:24.218Z,94591.00
2023-05-21T05:11:24.304Z,94589.00
2023-05-21T05:12:24.295Z,94589.00
2023-05-21T05:13:24.311Z,94587.00
2023-05-21T05:14:24.357Z,94587.00
2023-05-21T05:15:24.366Z,94589.00
2023-05-21T05:16:24.386Z,94589.00
2023-05-21T05:17:24.451Z,94589.00
2023-05-21T05:18:24.448Z,94589.00
2023-05-21T05:19:24.467Z,94589.00
2023-05-21T05:20:24.454Z,94587.00
2023-05-21T05:21:24.508Z,94585.00
2023-05-21T05:22:24.507Z,94583.00
2023-05-21T05:23:24.519Z,94585.00
2023-05-21T05:24:24.592Z,94585.00
2023-05-21T05:25:24.579Z,94583.00
2023-05-21T05:26:24.646Z,94581.00
2023-05-21T05:27:24.636Z,94583.00
2023-05-21T05:28:24.668Z,94581.00
2023-05-21T05:29:24.667Z,94581.00
2023-05-21T05:30:24.672Z,94581.00
2023-05-21T05:31:24.790Z,94581.00
2023-05-21T05:32:24.814Z,94583.00
2023-05-21T05:33:24.758Z,94585.00
2023-05-21T05:34:24.771Z,94585.00
2023-05-21T05:35:24.779Z,94587.00
2023-05-21T05:36:24.825Z,94585.00
2023-05-21T05:37:24.794Z,94581.00
2023-05-21T05:38:24.791Z,94578.00
2023-05-21T05:39:24.847Z,94578.00
2023-05-21T05:40:24.854Z,94578.00
2023-05-21T05:41:24.810Z,94578.00
2023-05-21T05:42:24.854Z,94576.00
2023-05-21T05:43:24.882Z,94579.00
2023-05-21T05:44:24.956Z,94576.00
2023-05-21T05:45:24.869Z,94574.00
2023-05-21T05:46:24.914Z,94574.00
2023-05-21T05:47:24.910Z,94574.00
2023-05-21T05:48:24.962Z,94572.00
2023-05-21T05:49:24.956Z,94574.00
2023-05-21T05:50:25.007Z,94579.00
2023-05-21T05:51:24.982Z,94578.00
2023-05-21T05:52:24.991Z,94579.00
2023-05-21T05:53:24.993Z,94579.00
2023-05-21T05:54:24.993Z,94578.00
2023-05-21T05:55:25.009Z,94579.00
2023-05-21T05:56:25.026Z,94578.00
2023-05-21T05:57:25.027Z,94578.00
2023-05-21T05:58:25.056Z,94576.00
2023-05-21T05:59:24.988Z,94574.00
2023-05-21T06:00:24.980Z,94578.00
2023-05-21T06:01:25.058Z,94578.00
2023-05-21T06:02:25.128Z,94581.00
2023-05-21T06:03:25.165Z,94583.00
2023-05-21T06:04:25.020Z,94583.00
2023-05-21T06:05:25.143Z,94583.00
2023-05-21T06:06:25.144Z,94585.00
2023-05-21T06:07:25.159Z,94581.00
2023-05-21T06:08:25.236Z,94585.00
2023-05-21T06:09:25.340Z,94581.00
2023-05-21T06:10:25.354Z,94581.00
2023-05-21T06:11:25.383Z,94578.00
2023-05-21T06:12:25.460Z,94579.00
2023-05-21T06:13:25.501Z,94581.00
2023-05-21T06:14:25.578Z,94581.00
2023-05-21T06:15:25.606Z,94579.00
2023-05-21T06:16:25.680Z,94576.00
2023-05-21T06:17:25.743Z,94574.00
2023-05-21T06:18:25.776Z,94572.00
2023-05-21T06:19:25.883Z,94574.00
2023-05-21T06:20:25.826Z,94572.00
2023-05-21T06:21:25.901Z,94574.00
2023-05-21T06:22:25.932Z,94574.00
2023-05-21T06:23:25.957Z,94574.00
2023-05-21T06:24:25.982Z,94576.00
2023-05-21T06:25:26.000Z,94572.00
2023-05-21T06:26:26.035Z,94566.00
2023-05-21T06:27:26.103Z,94558.00
2023-05-21T06:28:26.077Z,94554.00
2023-05-21T06:29:26.227Z,94552.00
2023-05-21T06:30:26.175Z,94558.00
2023-05-21T06:31:26.176Z,94558.00
2023-05-21T06:32:26.316Z,94560.00
2023-05-21T06:33:26.371Z,94560.00
2023-05-21T06:34:26.271Z,94558.00
2023-05-21T06:35:26.308Z,94556.00
2023-05-21T06:36:26.349Z,94552.00
2023-05-21T06:37:26.799Z,94550.00
2023-05-21T06:38:26.398Z,94548.00
2023-05-21T06:39:26.435Z,94550.00
2023-05-21T06:40:26.491Z,94556.00
2023-05-21T06:41:26.552Z,94554.00
2023-05-21T06:42:26.550Z,94556.00
2023-05-21T06:43:26.620Z,94554.00
2023-05-21T06:44:26.630Z,94550.00
2023-05-21T06:45:26.638Z,94550.00
2023-05-21T06:46:26.809Z,94552.00
2023-05-21T06:47:26.738Z,94558.00
2023-05-21T06:48:26.704Z,94560.00
2023-05-21T06:49:26.734Z,94564.00
2023-05-21T06:50:26.757Z,94560.00
2023-05-21T06:51:26.792Z,94558.00
2023-05-21T06:52:26.854Z,94554.00
2023-05-21T06:53:26.841Z,94552.00
2023-05-21T06:54:27.189Z,94550.00
2023-05-21T06:55:26.878Z,94552.00
2023-05-21T06:56:26.902Z,94558.00
2023-05-21T06:57:26.971Z,94562.00
2023-05-21T06:58:26.928Z,94562.00
2023-05-21T06:59:26.988Z,94564.00
2023-05-21T07:00:27.011Z,94564.00
2023-05-21T07:01:27.021Z,94558.00
2023-05-21T07:02:27.134Z,94556.00
2023-05-21T07:03:27.160Z,94554.00
2023-05-21T07:04:27.060Z,94556.00
2023-05-21T07:05:27.071Z,94556.00
2023-05-21T07:06:27.101Z,94558.00
2023-05-21T07:07:27.153Z,94560.00
2023-05-21T07:08:27.152Z,94562.00
2023-05-21T07:09:27.117Z,94560.00
2023-05-21T07:10:27.229Z,94558.00
2023-05-21T07:11:27.124Z,94556.00
2023-05-21T07:12:27.173Z,94552.00
2023-05-21T07:13:27.177Z,94552.00
2023-05-21T07:14:27.184Z,94550.00
2023-05-21T07:15:27.203Z,94550.00
2023-05-21T07:16:27.224Z,94550.00
2023-05-21T07:17:27.235Z,94550.00
2023-05-21T07:18:27.176Z,94546.00
2023-05-21T07:19:27.320Z,94539.00
2023-05-21T07:20:27.241Z,94540.00
2023-05-21T07:21:27.203Z,94535.00
2023-05-21T07:22:28.529Z,94535.00
2023-05-21T07:23:27.211Z,94537.00
2023-05-21T07:24:27.221Z,94531.00
2023-05-21T07:25:27.210Z,94531.00
2023-05-21T07:26:27.185Z,94531.00
2023-05-21T07:27:27.233Z,94531.00
2023-05-21T07:28:27.261Z,94533.00
2023-05-21T07:29:27.287Z,94529.00
2023-05-21T07:30:27.299Z,94531.00
2023-05-21T07:31:27.398Z,94531.00
2023-05-21T07:32:27.391Z,94531.00
2023-05-21T07:33:27.470Z,94527.00
2023-05-21T07:34:27.525Z,94523.00
2023-05-21T07:35:27.564Z,94523.00
2023-05-21T07:36:27.651Z,94521.00
2023-05-21T07:37:27.781Z,94519.00
2023-05-21T07:38:27.749Z,94515.00
2023-05-21T07:39:27.805Z,94515.00
2023-05-21T07:40:27.909Z,94513.00
2023-05-21T07:41:27.912Z,94515.00
2023-05-21T07:42:28.036Z,94517.00
2023-05-21T07:43:28.042Z,94517.00
2023-05-21T07:44:28.120Z,94519.00
2023-05-21T07:45:28.155Z,94517.00
2023-05-21T07:46:28.270Z,94519.00
2023-05-21T07:47:28.281Z,94519.00
2023-05-21T07:48:28.308Z,94515.00
2023-05-21T07:49:28.343Z,94513.00
2023-05-21T07:50:28.403Z,94513.00
2023-05-21T07:51:28.453Z,94515.00
2023-05-21T07:52:28.500Z,94515.00
2023-05-21T07:53:28.505Z,94507.00
2023-05-21T07:54:28.594Z,94507.00
2023-05-21T07:55:28.624Z,94503.00
2023-05-21T07:56:28.621Z,94501.00
2023-05-21T07:57:28.712Z,94501.00
2023-05-21T07:58:28.759Z,94501.00
2023-05-21T07:59:28.756Z,94505.00
2023-05-21T08:00:28.814Z,94505.00
2023-05-21T08:01:28.843Z,94505.00
2023-05-21T08:02:28.888Z,94501.00
2023-05-21T08:03:28.995Z,94499.00
2023-05-21T08:04:29.270Z,94499.00
2023-05-21T08:05:28.969Z,94501.00
2023-05-21T08:06:29.012Z,94497.00
2023-05-21T08:07:29.019Z,94503.00
2023-05-21T08:08:29.057Z,94501.00
2023-05-21T08:09:29.061Z,94503.00
2023-05-21T08:10:29.107Z,94503.00
2023-05-21T08:11:29.140Z,94501.00
2023-05-21T08:12:29.171Z,94505.00
2023-05-21T08:13:29.186Z,94501.00
2023-05-21T08:14:29.185Z,94501.00
2023-05-21T08:15:29.251Z,94501.00
2023-05-21T08:16:29.315Z,94501.00
2023-05-21T08:17:29.356Z,94499.00
2023-05-21T08:18:29.292Z,94497.00
2023-05-21T08:19:29.404Z,94495.00
2023-05-21T08:20:29.317Z,94493.00
2023-05-21T08:21:29.332Z,94489.00
2023-05-21T08:22:29.329Z,94487.00
2023-05-21T08:23:29.344Z,94489.00
2023-05-21T08:24:29.375Z,94489.00
2023-05-21T08:25:29.420Z,94489.00
2023-05-21T08:26:29.436Z,94493.00
2023-05-21T08:27:29.401Z,94491.00
2023-05-21T08:28:29.453Z,94491.00
2023-05-21T08:29:29.442Z,94487.00
2023-05-21T08:30:29.447Z,94489.00
2023-05-21T08:31:29.518Z,94485.00
2023-05-21T08:32:29.529Z,94482.00
2023-05-21T08:33:29.484Z,94480.00
2023-05-21T08:34:29.444Z,94474.00
2023-05-21T08:35:29.550Z,94472.00
2023-05-21T08:36:29.521Z,94472.00
2023-05-21T08:37:29.500Z,94472.00
2023-05-21T08:38:30.499Z,94474.00
2023-05-21T08:39:29.480Z,94476.00
2023-05-21T08:40:29.490Z,94476.00
2023-05-21T08:41:29.531Z,94476.00
2023-05-21T08:43:30.474Z,94470.00
2023-05-21T08:44:29.536Z,94470.00
2023-05-21T08:45:29.538Z,94468.00
2023-05-21T08:46:29.611Z,94468.00
2023-05-21T08:47:29.576Z,94468.00
2023-05-21T08:48:29.505Z,94468.00
2023-05-21T08:49:29.452Z,94472.00
2023-05-21T08:50:29.480Z,94472.00
2023-05-21T08:51:29.456Z,94472.00
2023-05-21T08:52:29.426Z,94472.00
2023-05-21T08:53:29.504Z,94470.00
2023-05-21T08:54:29.405Z,94466.00
2023-05-21T08:55:29.373Z,94460.00
2023-05-21T08:56:29.544Z,94458.00
2023-05-21T08:57:29.408Z,94458.00
2023-05-21T08:58:29.353Z,94456.00
2023-05-21T08:59:29.402Z,94454.00
2023-05-21T09:00:29.426Z,94450.00
2023-05-21T09:01:29.519Z,94454.00
2023-05-21T09:02:29.399Z,94448.00
2023-05-21T09:03:29.426Z,94446.00
2023-05-21T09:04:29.456Z,94446.00
2023-05-21T09:05:29.353Z,94444.00
2023-05-21T09:06:29.314Z,94444.00
2023-05-21T09:07:29.329Z,94444.00
2023-05-21T09:08:29.320Z,94444.00
2023-05-21T09:09:29.322Z,94452.00
2023-05-21T09:10:29.306Z,94454.00
2023-05-21T09:11:29.285Z,94456.00
2023-05-21T09:12:29.295Z,94458.00
2023-05-21T09:13:29.292Z,94460.00
2023-05-21T09:14:29.303Z,94460.00
2023-05-21T09:15:29.317Z,94468.00
2023-05-21T09:16:29.280Z,94470.00
2023-05-21T09:17:29.337Z,94456.00
2023-05-21T09:18:29.376Z,94454.00
2023-05-21T09:19:29.535Z,94462.00
2023-05-21T09:20:29.439Z,94458.00
2023-05-21T09:21:29.523Z,94452.00
2023-05-21T09:22:29.564Z,94444.00
2023-05-21T09:23:29.610Z,94450.00
2023-05-21T09:24:29.633Z,94452.00
2023-05-21T09:25:29.684Z,94452.00
2023-05-21T09:26:29.910Z,94450.00
2023-05-21T09:27:29.779Z,94448.00
2023-05-21T09:28:29.811Z,94444.00
2023-05-21T09:29:29.814Z,94446.00
2023-05-21T09:30:31.262Z,94448.00
2023-05-21T09:31:30.136Z,94444.00
2023-05-21T09:32:30.134Z,94450.00
2023-05-21T09:33:30.229Z,94454.00
2023-05-21T09:34:30.216Z,94460.00
2023-05-21T09:35:30.250Z,94454.00
2023-05-21T09:36:30.329Z,94448.00
2023-05-21T09:37:30.404Z,94452.00
2023-05-21T09:38:30.448Z,94466.00
2023-05-21T09:39:30.476Z,94460.00
2023-05-21T09:40:30.555Z,94460.00
2023-05-21T09:41:30.616Z,94460.00
2023-05-21T09:42:30.680Z,94462.00
2023-05-21T09:43:30.859Z,94460.00
2023-05-21T09:44:30.834Z,94462.00
2023-05-21T09:45:30.847Z,94460.00
2023-05-21T09:46:30.968Z,94462.00
2023-05-21T09:47:30.998Z,94456.00
2023-05-21T09:48:31.034Z,94456.00
2023-05-21T09:49:31.090Z,94452.00
2023-05-21T09:50:31.077Z,94452.00
2023-05-21T09:51:31.198Z,94454.00
2023-05-21T09:52:31.250Z,94452.00
2023-05-21T09:53:31.267Z,94454.00
2023-05-21T09:54:31.316Z,94454.00
2023-05-21T09:55:31.323Z,94454.00
2023-05-21T09:56:31.475Z,94454.00
2023-05-21T09:57:31.466Z,94462.00
2023-05-21T09:58:31.540Z,94464.00
2023-05-21T09:59:31.624Z,94462.00
2023-05-21T10:00:31.672Z,94464.00
2023-05-21T10:01:31.695Z,94458.00
2023-05-21T10:02:31.778Z,94454.00
2023-05-21T10:03:31.822Z,94458.00
2023-05-21T10:04:31.904Z,94460.00
2023-05-21T10:05:31.858Z,94462.00
2023-05-21T10:06:31.865Z,94458.00
2023-05-21T10:07:31.922Z,94464.00
2023-05-21T10:08:31.925Z,94458.00
2023-05-21T10:09:32.016Z,94456.00
2023-05-21T10:10:32.148Z,94460.00
2023-05-21T10:11:32.115Z,94460.00
2023-05-21T10:12:32.177Z,94460.00
2023-05-21T10:13:32.233Z,94462.00
2023-05-21T10:14:32.295Z,94462.00
2023-05-21T10:15:32.335Z,94462.00
2023-05-21T10:16:32.448Z,94464.00
2023-05-21T10:17:32.418Z,94462.00
2023-05-21T10:18:32.492Z,94460.00
2023-05-21T10:19:32.693Z,94456.00
2023-05-21T10:20:32.683Z,94454.00
2023-05-21T10:21:32.681Z,94460.00
2023-05-21T10:22:32.725Z,94452.00
2023-05-21T10:23:32.805Z,94450.00
2023-05-21T10:24:32.852Z,94452.00
2023-05-21T10:25:32.866Z,94450.00
2023-05-21T10:26:32.925Z,94446.00
2023-05-21T10:27:33.140Z,94442.00
2023-05-21T10:28:33.040Z,94444.00
2023-05-21T10:29:33.152Z,94446.00
2023-05-21T10:30:33.148Z,94444.00
2023-05-21T10:31:33.252Z,94437.00
2023-05-21T10:32:33.429Z,94438.00
2023-05-21T10:33:33.433Z,94438.00
2023-05-21T10:34:33.419Z,94442.00
2023-05-21T10:35:33.438Z,94442.00
2023-05-21T10:36:33.552Z,94435.00
2023-05-21T10:37:33.620Z,94435.00
2023-05-21T10:38:33.668Z,94431.00
2023-05-21T10:39:33.675Z,94435.00
2023-05-21T10:40:33.800Z,94429.00
2023-05-21T10:41:33.847Z,94433.00
2023-05-21T10:42:33.934Z,94435.00
2023-05-21T10:43:33.979Z,94427.00
2023-05-21T10:44:34.024Z,94429.00
2023-05-21T10:45:34.084Z,94433.00
2023-05-21T10:46:34.189Z,94425.00
2023-05-21T10:47:34.273Z,94429.00
2023-05-21T10:48:34.309Z,94425.00
2023-05-21T10:49:34.363Z,94429.00
2023-05-21T10:50:34.420Z,94425.00
2023-05-21T10:51:34.432Z,94423.00
2023-05-21T10:52:34.490Z,94421.00
2023-05-21T10:53:34.546Z,94421.00
2023-05-21T10:54:34.653Z,94417.00
2023-05-21T10:55:34.666Z,94421.00
2023-05-21T10:56:34.690Z,94427.00
2023-05-21T10:57:34.826Z,94425.00
2023-05-21T10:58:34.890Z,94421.00
2023-05-21T10:59:34.900Z,94413.00
2023-05-21T11:00:35.122Z,94417.00
2023-05-21T11:01:35.043Z,94413.00
2023-05-21T11:02:35.232Z,94411.00
2023-05-21T11:03:37.471Z,94421.00
2023-05-21T11:04:35.137Z,94421.00
2023-05-21T11:05:35.216Z,94419.00
2023-05-21T11:06:35.123Z,94415.00
2023-05-21T11:07:35.098Z,94411.00
2023-05-21T11:08:35.106Z,94417.00
2023-05-21T11:09:35.171Z,94415.00
2023-05-21T11:10:35.205Z,94419.00
2023-05-21T11:11:35.085Z,94411.00
2023-05-21T11:12:35.093Z,94417.00
2023-05-21T11:13:35.087Z,94415.00
2023-05-21T11:14:35.317Z,94415.00
2023-05-21T11:15:35.072Z,94417.00
2023-05-21T11:16:35.101Z,94415.00
2023-05-21T11:17:35.047Z,94413.00
2023-05-21T11:18:35.020Z,94413.00
2023-05-21T11:19:35.043Z,94409.00
2023-05-21T11:20:35.264Z,94413.00
2023-05-21T11:21:35.141Z,94417.00
2023-05-21T11:22:34.975Z,94421.00
2023-05-21T11:23:35.093Z,94409.00
2023-05-21T11:24:35.017Z,94411.00
2023-05-21T11:25:34.967Z,94417.00
2023-05-21T11:26:35.059Z,94413.00
2023-05-21T11:27:34.946Z,94415.00
2023-05-21T11:28:34.991Z,94423.00
2023-05-21T11:29:34.955Z,94411.00
2023-05-21T11:30:36.217Z,94405.00
2023-05-21T11:31:34.974Z,94411.00
2023-05-21T11:32:34.921Z,94411.00
2023-05-21T11:33:34.911Z,94413.00
2023-05-21T11:34:34.933Z,94413.00
2023-05-21T11:35:34.947Z,94407.00
2023-05-21T11:36:36.045Z,94407.00
2023-05-21T11:37:35.018Z,94411.00
2023-05-21T11:38:34.915Z,94407.00
2023-05-21T11:39:34.911Z,94407.00
2023-05-21T11:40:36.060Z,94413.00
2023-05-21T11:41:34.868Z,94411.00
2023-05-21T11:42:34.885Z,94403.00
2023-05-21T11:43:34.941Z,94399.00
2023-05-21T11:44:34.907Z,94405.00
2023-05-21T11:45:34.839Z,94409.00